createdAt,value
2022-11-17T00:00:42.234Z,100372.09
2022-11-17T00:03:14.902Z,100371.94
2022-11-17T00:05:42.315Z,100380.75
2022-11-17T00:08:10.087Z,100371.25
2022-11-17T00:10:37.121Z,100365.28
2022-11-17T00:13:22.668Z,100368.84
2022-11-17T00:15:49.829Z,100360.59
2022-11-17T00:18:37.120Z,100362.53
2022-11-17T00:21:20.027Z,100364.50
2022-11-17T00:23:48.113Z,100365.28
2022-11-17T00:26:24.546Z,100360.97
2022-11-17T00:28:53.697Z,100363.00
2022-11-17T00:31:39.460Z,100368.94
2022-11-17T00:34:07.185Z,100367.34
2022-11-17T00:36:48.970Z,100365.38
2022-11-17T00:39:17.860Z,100356.81
2022-11-17T00:41:44.954Z,100350.94
2022-11-17T00:44:12.107Z,100351.31
2022-11-17T00:46:40.548Z,100348.56
2022-11-17T00:49:09.263Z,100343.94
2022-11-17T00:51:37.236Z,100355.06
2022-11-17T00:54:06.229Z,100350.72
2022-11-17T00:56:34.607Z,100355.06
2022-11-17T00:59:03.558Z,100345.31
2022-11-17T01:01:31.274Z,100352.88
2022-11-17T01:04:05.352Z,100353.75
2022-11-17T01:06:43.643Z,100352.59
2022-11-17T01:09:14.369Z,100350.75
2022-11-17T01:11:42.802Z,100359.44
2022-11-17T01:14:18.728Z,100352.44
2022-11-17T01:16:46.220Z,100343.38
2022-11-17T01:19:15.088Z,100338.31
2022-11-17T01:21:42.497Z,100334.78
2022-11-17T01:24:11.449Z,100333.09
2022-11-17T01:26:39.954Z,100328.47
2022-11-17T01:29:08.553Z,100335.22
2022-11-17T01:31:39.062Z,100331.31
2022-11-17T01:34:07.459Z,100338.06
2022-11-17T01:36:55.278Z,100338.75
2022-11-17T01:39:26.333Z,100337.59
2022-11-17T01:41:54.284Z,100338.31
2022-11-17T01:44:36.533Z,100329.56
2022-11-17T01:47:05.933Z,100327.06
2022-11-17T01:49:33.715Z,100321.00
2022-11-17T01:52:06.312Z,100316.97
2022-11-17T01:54:36.454Z,100310.88
2022-11-17T01:57:12.931Z,100305.81
2022-11-17T01:59:44.732Z,100305.28
2022-11-17T02:02:11.917Z,100311.03
2022-11-17T02:04:43.384Z,100302.00
2022-11-17T02:07:18.906Z,100289.34
2022-11-17T02:09:47.047Z,100294.38
2022-11-17T02:12:16.451Z,100295.44
2022-11-17T02:14:43.667Z,100292.22
2022-11-17T02:17:14.509Z,100296.47
2022-11-17T02:19:44.663Z,100292.16
2022-11-17T02:22:38.384Z,100290.56
2022-11-17T02:25:08.403Z,100283.09
2022-11-17T02:27:44.279Z,100280.69
2022-11-17T02:30:15.757Z,100294.09
2022-11-17T02:33:01.008Z,100281.50
2022-11-17T02:35:37.175Z,100291.78
2022-11-17T02:38:31.468Z,100274.97
2022-11-17T02:41:11.969Z,100274.25
2022-11-17T02:44:04.211Z,100269.88
2022-11-17T02:46:44.040Z,100273.47
2022-11-17T02:49:30.177Z,100263.59
2022-11-17T02:51:59.543Z,100267.97
2022-11-17T02:54:31.016Z,100270.44
2022-11-17T02:57:00.516Z,100264.50
2022-11-17T02:59:44.057Z,100262.09
2022-11-17T03:02:10.970Z,100266.44
2022-11-17T03:05:04.643Z,100267.59
2022-11-17T03:07:45.424Z,100254.31
2022-11-17T03:10:19.022Z,100249.06
2022-11-17T03:12:48.778Z,100236.50
2022-11-17T03:15:34.089Z,100246.59
2022-11-17T03:18:10.019Z,100235.88
2022-11-17T03:20:57.772Z,100237.72
2022-11-17T03:23:32.586Z,100246.66
2022-11-17T03:26:02.436Z,100243.47
2022-11-17T03:28:33.009Z,100241.88
2022-11-17T03:31:04.044Z,100233.63
2022-11-17T03:33:33.247Z,100230.91
2022-11-17T03:36:14.987Z,100236.84
2022-11-17T03:38:52.788Z,100231.69
2022-11-17T03:41:22.232Z,100223.81
2022-11-17T03:43:52.104Z,100217.78
2022-11-17T03:46:22.370Z,100224.41
2022-11-17T03:49:33.355Z,100229.09
2022-11-17T03:52:01.025Z,100227.97
2022-11-17T03:54:28.569Z,100226.47
2022-11-17T03:57:09.230Z,100221.78
2022-11-17T03:59:57.494Z,100230.91
2022-11-17T04:02:26.272Z,100240.03
2022-11-17T04:05:05.653Z,100239.50
2022-11-17T04:07:40.519Z,100254.66
2022-11-17T04:10:12.537Z,100264.50
2022-11-17T04:12:58.313Z,100265.72
2022-11-17T04:15:44.517Z,100267.88
2022-11-17T04:18:17.887Z,100273.91
2022-11-17T04:20:45.851Z,100280.84
2022-11-17T04:23:14.830Z,100288.72
2022-11-17T04:26:14.183Z,100290.78
2022-11-17T04:28:47.259Z,100295.94
2022-11-17T04:31:17.541Z,100284.31
2022-11-17T04:34:12.029Z,100293.72
2022-11-17T04:36:44.079Z,100285.03
2022-11-17T04:39:16.045Z,100284.66
2022-11-17T04:41:57.663Z,100272.88
2022-11-17T04:44:27.681Z,100269.25
2022-11-17T04:46:56.096Z,100271.53
2022-11-17T04:49:25.903Z,100272.69
2022-11-17T04:51:54.068Z,100274.19
2022-11-17T04:54:24.837Z,100279.28
2022-11-17T04:56:53.595Z,100283.47
2022-11-17T04:59:21.308Z,100280.56
2022-11-17T05:01:48.948Z,100281.69
2022-11-17T05:04:36.536Z,100281.28
2022-11-17T05:07:04.091Z,100281.53
2022-11-17T05:09:31.451Z,100287.63
2022-11-17T05:12:17.015Z,100288.00
2022-11-17T05:14:46.579Z,100287.19
2022-11-17T05:17:13.612Z,100304.47
2022-11-17T05:19:47.392Z,100299.22
2022-11-17T05:22:40.101Z,100299.13
2022-11-17T05:25:07.856Z,100307.75
2022-11-17T05:27:35.074Z,100302.03
2022-11-17T05:30:07.334Z,100309.47
2022-11-17T05:32:35.580Z,100309.84
2022-11-17T05:35:02.647Z,100298.66
2022-11-17T05:37:29.736Z,100304.06
2022-11-17T05:39:56.824Z,100317.94
2022-11-17T05:42:24.043Z,100318.84
2022-11-17T05:44:51.132Z,100334.91
2022-11-17T05:47:18.264Z,100339.50
2022-11-17T05:49:45.413Z,100343.63
2022-11-17T05:52:12.519Z,100342.38
2022-11-17T05:54:39.590Z,100347.50
2022-11-17T05:57:15.362Z,100346.47
2022-11-17T05:59:55.124Z,100351.38
2022-11-17T06:02:29.441Z,100338.22
2022-11-17T06:04:56.563Z,100357.25
2022-11-17T06:07:24.535Z,100345.59
2022-11-17T06:09:52.439Z,100339.75
2022-11-17T06:12:19.455Z,100345.69
2022-11-17T06:14:46.498Z,100343.03
2022-11-17T06:17:23.288Z,100340.59
2022-11-17T06:20:12.812Z,100338.28
2022-11-17T06:22:44.063Z,100339.44
2022-11-17T06:25:14.413Z,100339.78
2022-11-17T06:27:42.069Z,100337.50
2022-11-17T06:30:11.477Z,100334.25
2022-11-17T06:32:41.036Z,100335.88
2022-11-17T06:35:10.355Z,100340.72
2022-11-17T06:37:37.476Z,100350.47
2022-11-17T06:40:04.885Z,100358.34
2022-11-17T06:42:50.324Z,100366.28
2022-11-17T06:45:17.428Z,100367.06
2022-11-17T06:47:44.630Z,100368.31
2022-11-17T06:50:11.695Z,100370.81
2022-11-17T06:52:39.277Z,100372.09
2022-11-17T06:55:06.884Z,100369.34
2022-11-17T06:57:34.020Z,100369.72
2022-11-17T07:00:01.210Z,100370.44
2022-11-17T07:02:28.488Z,100373.97
2022-11-17T07:04:55.700Z,100373.91
2022-11-17T07:07:22.883Z,100369.91
2022-11-17T07:09:50.083Z,100383.75
2022-11-17T07:12:17.175Z,100376.00
2022-11-17T07:14:45.069Z,100381.75
2022-11-17T07:17:12.168Z,100376.75
2022-11-17T07:19:39.423Z,100381.25
2022-11-17T07:22:06.439Z,100374.59
2022-11-17T07:24:33.617Z,100367.13
2022-11-17T07:27:02.970Z,100367.63
2022-11-17T07:29:30.993Z,100362.97
2022-11-17T07:31:58.065Z,100366.19
2022-11-17T07:34:25.140Z,100361.97
2022-11-17T07:36:52.302Z,100369.50
2022-11-17T07:39:21.681Z,100375.91
2022-11-17T07:41:49.087Z,100368.09
2022-11-17T07:44:16.281Z,100369.78
2022-11-17T07:46:43.331Z,100355.72
2022-11-17T07:49:10.482Z,100354.72
2022-11-17T07:51:37.595Z,100350.91
2022-11-17T07:54:04.769Z,100353.81
2022-11-17T07:56:31.931Z,100363.72
2022-11-17T07:58:59.117Z,100361.41
2022-11-17T08:01:29.864Z,100357.47
2022-11-17T08:03:58.055Z,100368.25
2022-11-17T08:06:25.391Z,100375.94
2022-11-17T08:08:53.805Z,100372.13
2022-11-17T08:11:21.151Z,100378.25
2022-11-17T08:13:50.172Z,100392.09
2022-11-17T08:16:17.665Z,100382.34
2022-11-17T08:18:50.493Z,100388.09
2022-11-17T08:21:19.524Z,100404.47
2022-11-17T08:23:52.262Z,100400.31
2022-11-17T08:26:23.937Z,100405.88
2022-11-17T08:28:56.849Z,100401.59
2022-11-17T08:31:25.284Z,100404.59
2022-11-17T08:33:52.455Z,100400.81
2022-11-17T08:36:19.678Z,100399.06
2022-11-17T08:38:46.766Z,100399.50
2022-11-17T08:41:14.131Z,100387.50
2022-11-17T08:43:41.345Z,100394.31
2022-11-17T08:46:12.572Z,100393.22
2022-11-17T08:48:40.273Z,100400.47
2022-11-17T08:51:08.499Z,100401.69
2022-11-17T08:53:35.743Z,100397.50
2022-11-17T08:56:07.729Z,100397.97
2022-11-17T08:58:42.713Z,100405.50
2022-11-17T09:01:16.117Z,100412.72
2022-11-17T09:03:47.939Z,100406.13
2022-11-17T09:06:17.031Z,100402.22
2022-11-17T09:08:46.599Z,100407.50
2022-11-17T09:11:14.911Z,100404.44
2022-11-17T09:13:42.511Z,100403.63
2022-11-17T09:16:11.676Z,100404.50
2022-11-17T09:18:39.870Z,100399.38
2022-11-17T09:21:10.401Z,100391.50
2022-11-17T09:23:38.323Z,100393.94
2022-11-17T09:26:12.176Z,100390.44
2022-11-17T09:28:39.927Z,100395.25
2022-11-17T09:31:16.548Z,100389.28
2022-11-17T09:33:44.303Z,100382.53
2022-11-17T09:36:13.466Z,100380.19
2022-11-17T09:38:41.086Z,100377.06
2022-11-17T09:41:28.650Z,100372.28
2022-11-17T09:44:07.757Z,100373.47
2022-11-17T09:46:53.456Z,100374.72
2022-11-17T09:49:42.266Z,100378.69
2022-11-17T09:52:24.634Z,100373.16
2022-11-17T09:55:17.870Z,100370.38
2022-11-17T09:57:48.539Z,100373.97
2022-11-17T10:00:19.228Z,100360.50
2022-11-17T10:02:47.933Z,100364.88
2022-11-17T10:05:35.257Z,100363.25
2022-11-17T10:08:08.681Z,100358.53
2022-11-17T10:10:44.648Z,100356.94
2022-11-17T10:13:33.622Z,100357.72
2022-11-17T10:16:27.066Z,100348.22
2022-11-17T10:18:54.192Z,100349.00
2022-11-17T10:21:21.327Z,100346.22
2022-11-17T10:23:56.505Z,100342.66
2022-11-17T10:26:23.850Z,100342.97
2022-11-17T10:29:08.780Z,100339.41
2022-11-17T10:31:44.621Z,100332.31
2022-11-17T10:34:31.952Z,100323.97
2022-11-17T10:37:22.111Z,100323.16
2022-11-17T10:39:49.427Z,100315.22
2022-11-17T10:42:29.122Z,100314.81
2022-11-17T10:45:01.045Z,100320.78
2022-11-17T10:47:38.005Z,100326.66
2022-11-17T10:50:27.720Z,100320.66
2022-11-17T10:53:15.592Z,100320.28
2022-11-17T10:55:44.163Z,100311.22
2022-11-17T10:58:29.362Z,100318.28
2022-11-17T11:00:59.460Z,100317.47
2022-11-17T11:03:32.186Z,100312.72
2022-11-17T11:05:59.275Z,100316.28
2022-11-17T11:09:21.582Z,100309.13
2022-11-17T11:11:56.610Z,100307.97
2022-11-17T11:14:26.724Z,100307.50
2022-11-17T11:16:55.298Z,100304.97
2022-11-17T11:19:22.724Z,100297.28
2022-11-17T11:22:21.571Z,100297.41
2022-11-17T11:24:59.700Z,100295.09
2022-11-17T11:27:52.295Z,100291.13
2022-11-17T11:30:19.979Z,100285.59
2022-11-17T11:33:19.988Z,100281.69
2022-11-17T11:36:02.260Z,100271.59
2022-11-17T11:38:47.908Z,100260.19
2022-11-17T11:41:35.100Z,100258.25
2022-11-17T11:44:03.158Z,100268.50
2022-11-17T11:46:45.353Z,100259.63
2022-11-17T11:49:31.028Z,100266.31
2022-11-17T11:51:59.945Z,100267.59
2022-11-17T11:54:51.298Z,100268.81
2022-11-17T11:57:28.694Z,100262.72
2022-11-17T12:00:13.754Z,100264.91
2022-11-17T12:03:05.533Z,100256.94
2022-11-17T12:06:32.609Z,100256.94
2022-11-17T12:09:05.129Z,100261.88
2022-11-17T12:11:53.637Z,100270.78
2022-11-17T12:14:24.444Z,100271.19
2022-11-17T12:17:26.290Z,100270.84
2022-11-17T12:19:57.436Z,100268.50
2022-11-17T12:22:30.321Z,100262.91
2022-11-17T12:25:15.294Z,100258.19
2022-11-17T12:27:55.153Z,100268.03
2022-11-17T12:30:31.032Z,100262.41
2022-11-17T12:33:04.859Z,100253.16
2022-11-17T12:35:37.258Z,100240.78
2022-11-17T12:38:16.763Z,100243.66
2022-11-17T12:40:46.461Z,100245.28
2022-11-17T12:43:16.416Z,100250.09
2022-11-17T12:45:55.843Z,100243.72
2022-11-17T12:48:34.406Z,100242.91
2022-11-17T12:51:27.220Z,100248.41
2022-11-17T12:54:13.418Z,100237.97
2022-11-17T12:56:49.679Z,100248.91
2022-11-17T12:59:44.176Z,100254.03
2022-11-17T13:02:11.461Z,100247.66
2022-11-17T13:04:53.023Z,100238.28
2022-11-17T13:07:23.071Z,100242.44
2022-11-17T13:09:58.241Z,100245.50
2022-11-17T13:12:28.077Z,100247.06
2022-11-17T13:14:57.570Z,100256.00
2022-11-17T13:17:31.335Z,100262.25
2022-11-17T13:20:27.338Z,100263.56
2022-11-17T13:23:01.342Z,100258.31
2022-11-17T13:25:28.550Z,100265.84
2022-11-17T13:28:01.187Z,100270.25
2022-11-17T13:30:33.499Z,100263.66
2022-11-17T13:33:03.831Z,100274.84
2022-11-17T13:35:35.823Z,100275.56
2022-11-17T13:38:12.368Z,100289.00
2022-11-17T13:40:42.777Z,100291.09
2022-11-17T13:43:22.799Z,100282.69
2022-11-17T13:45:53.850Z,100298.66
2022-11-17T13:48:42.258Z,100286.28
2022-11-17T13:51:28.114Z,100294.78
2022-11-17T13:54:24.638Z,100301.16
2022-11-17T13:56:54.225Z,100306.16
2022-11-17T13:59:30.722Z,100310.16
2022-11-17T14:02:16.352Z,100306.06
2022-11-17T14:05:23.572Z,100306.44
2022-11-17T14:07:51.395Z,100308.06
2022-11-17T14:10:21.500Z,100317.19
2022-11-17T14:12:50.639Z,100318.41
2022-11-17T14:15:26.900Z,100325.53
2022-11-17T14:17:56.977Z,100321.19
2022-11-17T14:20:23.965Z,100316.03
2022-11-17T14:23:18.764Z,100319.50
2022-11-17T14:25:51.593Z,100318.28
2022-11-17T14:28:20.924Z,100322.16
2022-11-17T14:30:49.536Z,100327.88
2022-11-17T14:33:16.652Z,100334.03
2022-11-17T14:35:45.736Z,100331.34
2022-11-17T14:38:16.444Z,100339.56
2022-11-17T14:40:43.719Z,100342.19
2022-11-17T14:43:10.821Z,100343.31
2022-11-17T14:45:38.063Z,100337.75
2022-11-17T14:48:08.138Z,100333.38
2022-11-17T14:50:35.578Z,100335.41
2022-11-17T14:53:02.675Z,100335.47
2022-11-17T14:55:29.834Z,100333.13
2022-11-17T14:57:56.924Z,100357.53
2022-11-17T15:00:24.323Z,100362.59
2022-11-17T15:02:51.512Z,100362.22
2022-11-17T15:05:18.851Z,100365.72
2022-11-17T15:07:45.966Z,100365.38
2022-11-17T15:10:13.296Z,100368.03
2022-11-17T15:12:40.393Z,100368.84
2022-11-17T15:15:07.903Z,100362.91
2022-11-17T15:17:35.183Z,100362.38
2022-11-17T15:20:02.323Z,100365.13
2022-11-17T15:22:29.483Z,100368.63
2022-11-17T15:24:56.667Z,100366.19
2022-11-17T15:27:24.037Z,100369.28
2022-11-17T15:29:51.249Z,100365.31
2022-11-17T15:32:18.313Z,100360.19
2022-11-17T15:34:45.407Z,100368.00
2022-11-17T15:37:12.692Z,100378.63
2022-11-17T15:39:39.770Z,100376.56
2022-11-17T15:42:06.887Z,100379.59
2022-11-17T15:44:34.168Z,100387.03
2022-11-17T15:47:01.253Z,100386.59
2022-11-17T15:49:28.455Z,100386.94
2022-11-17T15:51:55.659Z,100386.91
2022-11-17T15:54:23.599Z,100391.59
2022-11-17T15:56:52.033Z,100381.28
2022-11-17T15:59:19.778Z,100387.94
2022-11-17T16:01:47.394Z,100401.31
2022-11-17T16:04:16.209Z,100402.88
2022-11-17T16:06:45.843Z,100403.63
2022-11-17T16:09:13.641Z,100401.16
2022-11-17T16:11:41.359Z,100406.28
2022-11-17T16:14:08.490Z,100407.81
2022-11-17T16:16:38.272Z,100405.84
2022-11-17T16:19:06.278Z,100403.38
2022-11-17T16:21:34.021Z,100411.25
2022-11-17T16:24:02.408Z,100406.84
2022-11-17T16:26:30.491Z,100416.69
2022-11-17T16:28:59.648Z,100412.25
2022-11-17T16:31:29.642Z,100415.34
2022-11-17T16:33:59.897Z,100417.22
2022-11-17T16:36:35.586Z,100419.13
2022-11-17T16:39:05.473Z,100421.03
2022-11-17T16:41:38.738Z,100421.50
2022-11-17T16:44:12.993Z,100433.00
2022-11-17T16:46:50.173Z,100438.66
2022-11-17T16:49:20.451Z,100443.91
2022-11-17T16:51:52.893Z,100442.84
2022-11-17T16:54:20.908Z,100442.09
2022-11-17T16:56:48.354Z,100442.91
2022-11-17T16:59:16.067Z,100440.44
2022-11-17T17:01:44.868Z,100452.19
2022-11-17T17:04:12.705Z,100452.50
2022-11-17T17:06:43.811Z,100449.25
2022-11-17T17:09:13.970Z,100454.78
2022-11-17T17:11:42.504Z,100446.00
2022-11-17T17:14:13.606Z,100453.03
2022-11-17T17:16:41.969Z,100450.97
2022-11-17T17:19:10.989Z,100456.00
2022-11-17T17:21:40.351Z,100452.28
2022-11-17T17:24:08.970Z,100446.66
2022-11-17T17:26:37.094Z,100452.03
2022-11-17T17:29:06.157Z,100453.56
2022-11-17T17:31:36.345Z,100456.63
2022-11-17T17:34:04.811Z,100464.03
2022-11-17T17:36:32.902Z,100454.16
2022-11-17T17:39:02.097Z,100450.97
2022-11-17T17:41:34.669Z,100460.78
2022-11-17T17:44:06.008Z,100443.78
2022-11-17T17:46:38.461Z,100444.91
2022-11-17T17:49:06.508Z,100449.91
2022-11-17T17:51:37.690Z,100441.47
2022-11-17T17:54:04.988Z,100444.94
2022-11-17T17:56:34.878Z,100448.41
2022-11-17T17:59:02.279Z,100445.22
2022-11-17T18:01:33.280Z,100442.84
2022-11-17T18:04:05.159Z,100442.31
2022-11-17T18:06:38.130Z,100447.41
2022-11-17T18:09:06.840Z,100456.03
2022-11-17T18:11:34.532Z,100460.28
2022-11-17T18:14:02.226Z,100453.91
2022-11-17T18:16:32.477Z,100452.66
2022-11-17T18:19:05.841Z,100452.31
2022-11-17T18:21:33.348Z,100459.34
2022-11-17T18:24:01.596Z,100462.09
2022-11-17T18:26:36.619Z,100459.63
2022-11-17T18:29:05.191Z,100460.00
2022-11-17T18:31:35.367Z,100463.47
2022-11-17T18:34:06.119Z,100466.94
2022-11-17T18:36:34.934Z,100462.59
2022-11-17T18:39:02.327Z,100463.72
2022-11-17T18:41:31.087Z,100470.06
2022-11-17T18:43:58.793Z,100470.84
2022-11-17T18:46:30.915Z,100470.84
2022-11-17T18:49:00.196Z,100468.44
2022-11-17T18:51:29.744Z,100468.03
2022-11-17T18:53:59.002Z,100459.94
2022-11-17T18:56:36.772Z,100467.88
2022-11-17T18:59:11.676Z,100464.66
2022-11-17T19:01:43.155Z,100474.44
2022-11-17T19:04:13.689Z,100466.97
2022-11-17T19:06:40.959Z,100462.53
2022-11-17T19:09:08.540Z,100474.28
2022-11-17T19:11:36.178Z,100476.94
2022-11-17T19:14:05.739Z,100484.41
2022-11-17T19:16:42.553Z,100474.44
2022-11-17T19:19:13.604Z,100490.56
2022-11-17T19:21:41.383Z,100485.31
2022-11-17T19:24:09.292Z,100478.53
2022-11-17T19:26:36.705Z,100485.22
2022-11-17T19:29:09.855Z,100486.38
2022-11-17T19:31:40.199Z,100487.78
2022-11-17T19:34:07.529Z,100479.44
2022-11-17T19:36:35.483Z,100483.69
2022-11-17T19:39:03.816Z,100480.03
2022-11-17T19:41:36.328Z,100489.34
2022-11-17T19:44:06.005Z,100485.72
2022-11-17T19:46:34.291Z,100482.88
2022-11-17T19:49:01.508Z,100483.13
2022-11-17T19:51:33.806Z,100488.63
2022-11-17T19:54:06.430Z,100484.19
2022-11-17T19:56:33.937Z,100483.75
2022-11-17T19:59:03.746Z,100487.66
2022-11-17T20:01:32.771Z,100485.69
2022-11-17T20:04:01.807Z,100492.34
2022-11-17T20:06:36.117Z,100487.56
2022-11-17T20:09:10.041Z,100487.09
2022-11-17T20:11:38.605Z,100487.56
2022-11-17T20:14:06.571Z,100485.97
2022-11-17T20:16:34.310Z,100478.16
2022-11-17T20:19:02.605Z,100472.31
2022-11-17T20:21:31.459Z,100475.84
2022-11-17T20:24:00.533Z,100477.44
2022-11-17T20:26:31.017Z,100475.06
2022-11-17T20:28:59.533Z,100474.69
2022-11-17T20:31:30.231Z,100477.34
2022-11-17T20:34:00.891Z,100478.16
2022-11-17T20:36:30.582Z,100479.69
2022-11-17T20:39:02.849Z,100476.09
2022-11-17T20:41:30.861Z,100481.50
2022-11-17T20:44:00.791Z,100488.53
2022-11-17T20:46:28.345Z,100499.00
2022-11-17T20:48:55.876Z,100502.78
2022-11-17T20:51:25.040Z,100509.25
2022-11-17T20:53:52.407Z,100511.09
2022-11-17T20:56:20.322Z,100510.53
2022-11-17T20:58:47.954Z,100516.75
2022-11-17T21:01:17.514Z,100508.41
2022-11-17T21:03:45.748Z,100517.25
2022-11-17T21:06:14.206Z,100518.69
2022-11-17T21:08:43.119Z,100516.66
2022-11-17T21:11:37.313Z,100517.69
2022-11-17T21:14:08.028Z,100508.19
2022-11-17T21:16:37.772Z,100515.66
2022-11-17T21:19:05.471Z,100510.50
2022-11-17T21:21:33.224Z,100511.63
2022-11-17T21:24:00.416Z,100506.72
2022-11-17T21:26:28.074Z,100517.50
2022-11-17T21:28:55.803Z,100518.75
2022-11-17T21:31:25.511Z,100518.75
2022-11-17T21:34:01.087Z,100507.97
2022-11-17T21:36:30.485Z,100510.44
2022-11-17T21:38:58.207Z,100514.34
2022-11-17T21:41:28.390Z,100506.00
2022-11-17T21:43:59.898Z,100506.34
2022-11-17T21:46:29.720Z,100514.94
2022-11-17T21:48:59.361Z,100520.34
2022-11-17T21:51:28.842Z,100525.75
2022-11-17T21:53:57.977Z,100517.81
2022-11-17T21:56:29.223Z,100522.53
2022-11-17T21:58:58.136Z,100513.03
2022-11-17T22:01:26.005Z,100514.28
2022-11-17T22:03:53.581Z,100504.09
2022-11-17T22:06:23.200Z,100513.94
2022-11-17T22:08:51.666Z,100509.59
2022-11-17T22:11:36.699Z,100512.22
2022-11-17T22:14:06.860Z,100521.97
2022-11-17T22:16:37.087Z,100520.03
2022-11-17T22:19:06.045Z,100522.31
2022-11-17T22:21:33.374Z,100513.28
2022-11-17T22:24:00.720Z,100516.81
2022-11-17T22:26:27.881Z,100511.44
2022-11-17T22:28:56.169Z,100513.38
2022-11-17T22:31:24.011Z,100514.19
2022-11-17T22:33:51.600Z,100512.13
2022-11-17T22:36:19.445Z,100514.41
2022-11-17T22:38:50.495Z,100511.44
2022-11-17T22:41:19.669Z,100507.81
2022-11-17T22:43:54.585Z,100511.94
2022-11-17T22:46:24.051Z,100514.09
2022-11-17T22:48:51.350Z,100520.19
2022-11-17T22:51:38.851Z,100526.72
2022-11-17T22:54:07.212Z,100525.34
2022-11-17T22:56:34.656Z,100515.03
2022-11-17T22:59:01.943Z,100511.88
2022-11-17T23:01:29.217Z,100508.66
2022-11-17T23:03:56.819Z,100517.69
2022-11-17T23:06:24.582Z,100515.28
2022-11-17T23:08:51.741Z,100517.25
2022-11-17T23:14:08.302Z,100520.44
2022-11-17T23:16:39.819Z,100519.63
2022-11-17T23:19:09.692Z,100521.59
2022-11-17T23:21:36.917Z,100523.97
2022-11-17T23:24:04.647Z,100526.03
2022-11-17T23:26:31.932Z,100529.94
2022-11-17T23:28:59.149Z,100520.09
2022-11-17T23:31:28.048Z,100518.38
2022-11-17T23:33:55.470Z,100518.72
2022-11-17T23:36:23.718Z,100515.06
2022-11-17T23:38:51.768Z,100515.75
2022-11-17T23:41:20.571Z,100508.75
2022-11-17T23:43:52.324Z,100505.22
2022-11-17T23:46:22.541Z,100503.72
2022-11-17T23:48:51.112Z,100505.69
2022-11-17T23:51:23.107Z,100498.94
2022-11-17T23:53:50.404Z,100496.44
2022-11-17T23:56:19.162Z,100490.00
2022-11-17T23:58:46.634Z,100489.56
